< < Back
Terminal Aerodrome Forecast


Current Version              Previous Versions:   1  2  3  4  5  6  7  8  9  

Terminal Aerodrome Forecast

600
FTUS44 KBMX 040021 AAB
TAFMGM
TAF AMD
KMGM 040021Z 0400/0424 22005KT P6SM VCTS SCT050CB OVC250
      TEMPO 0400/0401 VRB15G35KT 4SM TSRA BKN050CB
     FM040130 26003KT P6SM OVC250
     FM040900 17005KT P6SM OVC025
     FM041500 28004KT P6SM SCT050=

Latest METAR

829
SAUS80 KWBC 040300 RRB
MTRMGM
METAR KMGM 040253Z 00000KT 10SM BKN060 23/19 A3001 RMK AO2 SLP161 60066
T02280194 53013


USA.gov is the U.S. government's official web portal to all federal, state and local government web resources and services.